Time;durP1;ratioP1;P1;durP2;ratioP2;P2;SDS_P1;SDS_P2;PMS_P1;PMS_P2;Temp;Humidity;BMP_temperature;BMP_pressure;BME280_temperature;BME280_humidity;BME280_pressure;Samples;Min_cycle;Max_cycle;Signal;HPM_P1;HPM_P2
2022/09/18 00:00:38;;;;;;;4.60;1.20;;;;;;;;;;5009619;28;20668;-74
2022/09/18 00:03:03;;;;;;;3.77;1.23;;;;;;;;;;5012168;28;20203;-73
2022/09/18 00:05:28;;;;;;;6.30;1.87;;;;;;;;;;5010724;28;20264;-74
2022/09/18 00:07:53;;;;;;;7.63;3.10;;;;;;;;;;5012180;28;20221;-74
2022/09/18 00:10:18;;;;;;;2.57;1.43;;;;;;;;;;5001753;28;20183;-74
2022/09/18 00:12:44;;;;;;;5.90;1.20;;;;;;;;;;5008593;28;20214;-74
2022/09/18 00:15:09;;;;;;;3.17;1.23;;;;;;;;;;5010768;28;22064;-74
2022/09/18 00:17:34;;;;;;;6.80;1.30;;;;;;;;;;5010189;28;20203;-74
2022/09/18 00:19:59;;;;;;;3.53;1.00;;;;;;;;;;5010954;28;20179;-74
2022/09/18 00:22:24;;;;;;;6.43;1.23;;;;;;;;;;5008733;28;20696;-75
2022/09/18 00:24:50;;;;;;;8.93;1.13;;;;;;;;;;5011889;28;20189;-74
2022/09/18 00:27:15;;;;;;;7.80;1.50;;;;;;;;;;5010221;28;20175;-74
2022/09/18 00:29:40;;;;;;;6.00;1.50;;;;;;;;;;5011040;28;20253;-74
2022/09/18 00:32:05;;;;;;;4.47;1.00;;;;;;;;;;5011210;28;20198;-74
2022/09/18 00:34:30;;;;;;;4.33;1.03;;;;;;;;;;5011745;28;20601;-74
2022/09/18 00:36:55;;;;;;;4.47;0.97;;;;;;;;;;5011744;28;20267;-74
2022/09/18 00:39:21;;;;;;;10.40;2.43;;;;;;;;;;5009598;28;20209;-74
2022/09/18 00:41:46;;;;;;;6.63;1.83;;;;;;;;;;5012180;28;20191;-74
2022/09/18 00:44:29;;;;;;;5.93;1.50;;;;;;;;;;5010479;28;20653;-74
2022/09/18 00:47:01;;;;;;;8.53;1.57;;;;;;;;;;5008576;28;20175;-73
2022/09/18 00:49:27;;;;;;;7.17;1.10;;;;;;;;;;5007405;28;20181;-74
2022/09/18 00:51:53;;;;;;;4.77;1.23;;;;;;;;;;5009288;28;20203;-73
2022/09/18 00:54:21;;;;;;;4.40;1.20;;;;;;;;;;5009741;28;20190;-74
2022/09/18 00:56:48;;;;;;;2.57;0.90;;;;;;;;;;5002008;28;20199;-73
2022/09/18 00:59:16;;;;;;;4.00;1.00;;;;;;;;;;4999803;28;20695;-73
2022/09/18 01:01:41;;;;;;;3.03;1.00;;;;;;;;;;5008771;28;20202;-73
2022/09/18 01:04:10;;;;;;;5.60;1.57;;;;;;;;;;5010766;28;20175;-74
2022/09/18 01:06:41;;;;;;;3.87;1.13;;;;;;;;;;5011918;28;20254;-73
2022/09/18 01:09:21;;;;;;;4.07;0.80;;;;;;;;;;5010308;28;20674;-73
2022/09/18 01:11:53;;;;;;;3.87;1.03;;;;;;;;;;5007195;28;20202;-74
2022/09/18 01:14:35;;;;;;;4.43;0.90;;;;;;;;;;5010107;28;20183;-75
2022/09/18 01:17:14;;;;;;;3.87;1.03;;;;;;;;;;5009034;28;20183;-75
2022/09/18 01:19:40;;;;;;;2.60;1.00;;;;;;;;;;5009222;28;20174;-75
2022/09/18 01:22:05;;;;;;;4.30;1.20;;;;;;;;;;4995096;28;20766;-75
2022/09/18 01:24:33;;;;;;;5.00;0.73;;;;;;;;;;5009976;28;20531;-75
2022/09/18 01:27:03;;;;;;;4.70;1.03;;;;;;;;;;5010576;28;20187;-75
2022/09/18 01:29:34;;;;;;;6.27;1.30;;;;;;;;;;5008931;28;20175;-74
2022/09/18 01:32:07;;;;;;;3.67;0.70;;;;;;;;;;5010106;28;20199;-72
2022/09/18 01:34:32;;;;;;;3.63;1.10;;;;;;;;;;5010058;28;20600;-74
2022/09/18 01:37:00;;;;;;;5.82;1.10;;;;;;;;;;5009425;28;20187;-74
2022/09/18 01:39:33;;;;;;;3.47;0.90;;;;;;;;;;5009990;28;20291;-75
2022/09/18 01:42:00;;;;;;;3.97;0.90;;;;;;;;;;5010333;28;20195;-74
2022/09/18 01:44:27;;;;;;;3.17;1.07;;;;;;;;;;5009471;28;20179;-74
2022/09/18 01:46:55;;;;;;;1.37;0.50;;;;;;;;;;5011318;28;20228;-75
2022/09/18 01:49:25;;;;;;;2.90;0.93;;;;;;;;;;5009552;28;20226;-74
2022/09/18 01:51:54;;;;;;;5.40;0.93;;;;;;;;;;5009543;28;20198;-74
2022/09/18 01:54:23;;;;;;;2.53;0.80;;;;;;;;;;5014634;28;20178;-73
2022/09/18 01:57:07;;;;;;;5.07;0.90;;;;;;;;;;4999768;28;20183;-75
2022/09/18 01:59:39;;;;;;;3.60;0.90;;;;;;;;;;5009030;28;20341;-75
2022/09/18 02:02:07;;;;;;;1.37;0.80;;;;;;;;;;5009219;28;20199;-75
2022/09/18 02:04:34;;;;;;;1.30;0.40;;;;;;;;;;4991725;28;20890;-75
2022/09/18 02:07:03;;;;;;;6.20;1.30;;;;;;;;;;5010874;28;20249;-75
2022/09/18 02:09:29;;;;;;;4.43;1.03;;;;;;;;;;5009292;28;20182;-75
2022/09/18 02:11:55;;;;;;;6.67;0.93;;;;;;;;;;5008994;28;20205;-75
2022/09/18 02:14:26;;;;;;;5.27;2.40;;;;;;;;;;5010054;28;20214;-73
2022/09/18 02:16:53;;;;;;;2.47;1.00;;;;;;;;;;4999275;28;20182;-75
2022/09/18 02:19:27;;;;;;;7.40;1.13;;;;;;;;;;5008090;28;20290;-75
2022/09/18 02:21:53;;;;;;;2.43;0.67;;;;;;;;;;5009226;28;20221;-74
2022/09/18 02:24:20;;;;;;;1.17;0.60;;;;;;;;;;5007193;28;20533;-74
2022/09/18 02:26:47;;;;;;;3.40;0.90;;;;;;;;;;5008394;28;20179;-75
2022/09/18 02:29:13;;;;;;;4.23;0.83;;;;;;;;;;5010308;28;20207;-74
2022/09/18 02:31:39;;;;;;;6.67;1.40;;;;;;;;;;5011212;28;20692;-73
2022/09/18 02:34:07;;;;;;;1.87;1.43;;;;;;;;;;5009666;28;20225;-75
2022/09/18 02:36:32;;;;;;;3.37;0.90;;;;;;;;;;5012243;28;20262;-72
2022/09/18 02:39:16;;;;;;;3.17;0.80;;;;;;;;;;5009099;28;20298;-74
2022/09/18 02:41:47;;;;;;;2.53;0.60;;;;;;;;;;5017208;28;20424;-74
2022/09/18 02:44:18;;;;;;;4.77;0.87;;;;;;;;;;5010205;28;20183;-74
2022/09/18 02:46:58;;;;;;;4.37;0.70;;;;;;;;;;5000907;28;20181;-74
2022/09/18 02:49:26;;;;;;;4.50;0.73;;;;;;;;;;5014911;28;20659;-73
2022/09/18 02:52:01;;;;;;;1.67;0.80;;;;;;;;;;5019472;28;20210;-74
2022/09/18 02:54:47;;;;;;;1.07;0.77;;;;;;;;;;5019467;28;20190;-74
2022/09/18 02:57:15;;;;;;;3.97;1.00;;;;;;;;;;5006923;28;20667;-74
2022/09/18 02:59:59;;;;;;;3.20;0.87;;;;;;;;;;5008909;28;20195;-74
2022/09/18 03:02:25;;;;;;;4.20;1.53;;;;;;;;;;5012079;28;20199;-74
2022/09/18 03:04:50;;;;;;;1.10;0.60;;;;;;;;;;5013944;28;20551;-74
2022/09/18 03:07:16;;;;;;;1.90;0.53;;;;;;;;;;5013710;28;20258;-74
2022/09/18 03:09:44;;;;;;;1.83;0.67;;;;;;;;;;5010892;28;20255;-74
2022/09/18 03:12:10;;;;;;;2.63;0.73;;;;;;;;;;5012645;28;20191;-74
2022/09/18 03:14:35;;;;;;;5.27;2.20;;;;;;;;;;5012302;28;20182;-74
2022/09/18 03:17:00;;;;;;;4.70;1.10;;;;;;;;;;5012436;28;20470;-74
2022/09/18 03:19:26;;;;;;;5.03;0.93;;;;;;;;;;4994120;28;20251;-75
2022/09/18 03:21:51;;;;;;;1.33;0.50;;;;;;;;;;5011163;28;20202;-74
2022/09/18 03:24:17;;;;;;;1.83;0.60;;;;;;;;;;4994798;28;20185;-74
2022/09/18 03:26:42;;;;;;;3.40;0.67;;;;;;;;;;5011151;28;20236;-74
2022/09/18 03:29:08;;;;;;;1.77;0.40;;;;;;;;;;5013047;28;20691;-74
2022/09/18 03:31:33;;;;;;;2.50;1.50;;;;;;;;;;5013350;28;20203;-74
2022/09/18 03:33:58;;;;;;;4.20;1.40;;;;;;;;;;5012067;28;20241;-74
2022/09/18 03:36:24;;;;;;;6.83;2.13;;;;;;;;;;5012874;28;20361;-75
2022/09/18 03:38:49;;;;;;;2.50;0.80;;;;;;;;;;5011203;28;20291;-75
2022/09/18 03:41:14;;;;;;;2.73;0.57;;;;;;;;;;5012331;28;20183;-74
2022/09/18 03:43:39;;;;;;;2.97;1.10;;;;;;;;;;5012620;28;20550;-74
2022/09/18 03:46:04;;;;;;;2.00;0.50;;;;;;;;;;5012985;28;20210;-74
2022/09/18 03:48:30;;;;;;;1.87;0.70;;;;;;;;;;5012564;28;20189;-75
2022/09/18 03:50:55;;;;;;;2.53;0.83;;;;;;;;;;5016460;28;20185;-74
2022/09/18 03:53:20;;;;;;;4.53;0.70;;;;;;;;;;5014435;28;20272;-72
2022/09/18 03:55:47;;;;;;;4.97;0.90;;;;;;;;;;5013210;28;20221;-74
2022/09/18 03:58:12;;;;;;;9.47;2.50;;;;;;;;;;5006273;28;20221;-75
2022/09/18 04:00:38;;;;;;;2.07;0.40;;;;;;;;;;5011037;28;20641;-74
2022/09/18 04:03:03;;;;;;;2.50;0.57;;;;;;;;;;5010014;28;20190;-74
2022/09/18 04:05:28;;;;;;;2.63;0.50;;;;;;;;;;5012381;28;20175;-74
2022/09/18 04:07:53;;;;;;;2.90;0.70;;;;;;;;;;5011859;28;20191;-75
2022/09/18 04:10:19;;;;;;;1.90;0.67;;;;;;;;;;5012006;28;20190;-74
2022/09/18 04:12:46;;;;;;;2.37;0.73;;;;;;;;;;5009377;28;20250;-74
2022/09/18 04:15:11;;;;;;;2.27;0.60;;;;;;;;;;5013274;28;20178;-74
2022/09/18 04:17:37;;;;;;;6.07;0.67;;;;;;;;;;5010675;28;20221;-74
2022/09/18 04:20:02;;;;;;;1.93;0.73;;;;;;;;;;5011741;28;20210;-75
2022/09/18 04:22:27;;;;;;;1.27;0.60;;;;;;;;;;5010774;28;20540;-74
2022/09/18 04:24:52;;;;;;;4.20;0.87;;;;;;;;;;5011951;28;20675;-74
2022/09/18 04:27:18;;;;;;;1.37;0.60;;;;;;;;;;5010985;28;20171;-74
2022/09/18 04:29:43;;;;;;;2.17;0.40;;;;;;;;;;5011788;28;20629;-72
2022/09/18 04:32:08;;;;;;;2.93;1.27;;;;;;;;;;5017287;28;20194;-74
2022/09/18 04:34:34;;;;;;;3.40;0.50;;;;;;;;;;5012764;28;20175;-74
2022/09/18 04:36:59;;;;;;;2.70;0.70;;;;;;;;;;5011352;28;20179;-74
2022/09/18 04:39:24;;;;;;;2.50;0.53;;;;;;;;;;5012634;28;20241;-74
2022/09/18 04:41:50;;;;;;;1.60;0.70;;;;;;;;;;5010339;28;20187;-74
2022/09/18 04:44:15;;;;;;;1.93;0.50;;;;;;;;;;5014305;28;20645;-74
2022/09/18 04:46:40;;;;;;;3.20;1.10;;;;;;;;;;5018982;28;20171;-74
2022/09/18 04:49:06;;;;;;;1.87;0.40;;;;;;;;;;5015168;28;20198;-74
2022/09/18 04:51:31;;;;;;;4.13;0.50;;;;;;;;;;5010877;28;20659;-74
2022/09/18 04:53:56;;;;;;;4.30;1.03;;;;;;;;;;5014196;28;20201;-74
2022/09/18 04:56:21;;;;;;;2.00;0.93;;;;;;;;;;5015140;28;20178;-74
2022/09/18 04:58:46;;;;;;;2.30;0.40;;;;;;;;;;5005232;28;20249;-74
2022/09/18 05:01:12;;;;;;;2.40;0.40;;;;;;;;;;5007676;28;20723;-74
2022/09/18 05:03:37;;;;;;;2.77;0.67;;;;;;;;;;5008675;28;20289;-73
2022/09/18 05:06:02;;;;;;;1.70;0.67;;;;;;;;;;5010483;28;20187;-74
2022/09/18 05:08:28;;;;;;;1.60;0.30;;;;;;;;;;5009344;28;20175;-74
2022/09/18 05:10:53;;;;;;;1.20;0.50;;;;;;;;;;5009136;28;20189;-74
2022/09/18 05:13:18;;;;;;;1.67;0.40;;;;;;;;;;5022892;23;20598;-69
2022/09/18 05:15:44;;;;;;;5.30;0.60;;;;;;;;;;5014515;28;20648;-69
2022/09/18 05:18:10;;;;;;;7.03;1.97;;;;;;;;;;5007970;28;20253;-69
2022/09/18 05:20:35;;;;;;;0.77;0.43;;;;;;;;;;5009928;28;20214;-69
2022/09/18 05:23:00;;;;;;;1.63;0.40;;;;;;;;;;5008233;28;20664;-69
2022/09/18 05:25:27;;;;;;;0.73;0.43;;;;;;;;;;5006716;28;20245;-69
2022/09/18 05:27:57;;;;;;;2.20;0.30;;;;;;;;;;5010842;28;20275;-69
2022/09/18 05:30:23;;;;;;;1.50;0.30;;;;;;;;;;5011017;28;20198;-68
2022/09/18 05:32:55;;;;;;;3.03;0.70;;;;;;;;;;5010523;28;20202;-69
2022/09/18 05:35:20;;;;;;;2.80;1.20;;;;;;;;;;5008809;28;20187;-69
2022/09/18 05:37:47;;;;;;;0.83;0.60;;;;;;;;;;5009325;28;20682;-69
2022/09/18 05:40:13;;;;;;;1.23;0.60;;;;;;;;;;5010309;28;20290;-69
2022/09/18 05:42:43;;;;;;;1.87;0.60;;;;;;;;;;5017326;28;20736;-68
2022/09/18 05:45:08;;;;;;;3.20;0.50;;;;;;;;;;5009030;28;20266;-69
2022/09/18 05:47:35;;;;;;;3.67;0.50;;;;;;;;;;5008756;28;20262;-68
2022/09/18 05:50:00;;;;;;;0.87;0.47;;;;;;;;;;4992165;28;20205;-69
2022/09/18 05:52:25;;;;;;;1.50;0.50;;;;;;;;;;5008175;28;20199;-69
2022/09/18 05:54:50;;;;;;;1.67;0.43;;;;;;;;;;5012972;28;20183;-69
2022/09/18 05:57:16;;;;;;;1.57;0.53;;;;;;;;;;5009741;28;20700;-69
2022/09/18 05:59:41;;;;;;;2.83;0.67;;;;;;;;;;5003341;28;20281;-68
2022/09/18 06:02:08;;;;;;;1.97;1.20;;;;;;;;;;5001279;28;20207;-68
2022/09/18 06:04:33;;;;;;;2.77;0.73;;;;;;;;;;5014544;28;20567;-69
2022/09/18 06:07:00;;;;;;;0.63;0.27;;;;;;;;;;5007573;28;20191;-69
2022/09/18 06:09:25;;;;;;;1.97;0.90;;;;;;;;;;5009409;28;20249;-70
2022/09/18 06:11:51;;;;;;;4.00;0.50;;;;;;;;;;5008717;28;20281;-69
2022/09/18 06:14:16;;;;;;;2.80;0.63;;;;;;;;;;5009189;28;20218;-70
2022/09/18 06:16:42;;;;;;;2.67;0.70;;;;;;;;;;5012754;28;20182;-68
2022/09/18 06:19:07;;;;;;;3.03;0.60;;;;;;;;;;4988509;28;20264;-69
2022/09/18 06:21:32;;;;;;;2.55;0.45;;;;;;;;;;5012346;28;20273;-69
2022/09/18 06:23:57;;;;;;;2.70;0.67;;;;;;;;;;5012737;28;20179;-69
2022/09/18 06:26:23;;;;;;;3.23;0.87;;;;;;;;;;5011674;28;20197;-69
2022/09/18 06:28:49;;;;;;;4.27;0.90;;;;;;;;;;5009244;28;20187;-69
2022/09/18 06:31:15;;;;;;;3.10;0.73;;;;;;;;;;4999258;28;20199;-69
2022/09/18 06:33:40;;;;;;;2.10;0.80;;;;;;;;;;5019777;28;20294;-69
2022/09/18 06:36:09;;;;;;;6.40;2.40;;;;;;;;;;5012165;28;20659;-70
2022/09/18 06:38:34;;;;;;;3.25;1.30;;;;;;;;;;5019852;28;20248;-70
2022/09/18 06:40:59;;;;;;;1.23;0.30;;;;;;;;;;5012299;28;20218;-71
2022/09/18 06:43:24;;;;;;;1.73;0.60;;;;;;;;;;5016247;28;20209;-68
2022/09/18 06:45:51;;;;;;;2.55;0.63;;;;;;;;;;5013410;28;20179;-69
2022/09/18 06:48:16;;;;;;;3.37;0.90;;;;;;;;;;5012732;28;20233;-69
2022/09/18 06:50:41;;;;;;;2.38;0.70;;;;;;;;;;5012376;28;20187;-69
2022/09/18 06:53:06;;;;;;;3.07;0.70;;;;;;;;;;5018858;28;20221;-69
2022/09/18 06:55:32;;;;;;;4.85;0.90;;;;;;;;;;5020821;28;20195;-69
2022/09/18 06:57:57;;;;;;;4.30;1.08;;;;;;;;;;5010463;28;20199;-69
2022/09/18 07:00:23;;;;;;;2.00;0.50;;;;;;;;;;5004721;28;20633;-69
2022/09/18 07:02:59;;;;;;;1.63;0.60;;;;;;;;;;5004641;28;20195;-69
2022/09/18 07:05:25;;;;;;;5.68;0.98;;;;;;;;;;5020328;28;20565;-69
2022/09/18 07:07:50;;;;;;;1.13;0.50;;;;;;;;;;5011926;28;20187;-69
2022/09/18 07:10:15;;;;;;;5.32;0.70;;;;;;;;;;5021223;28;20181;-69
2022/09/18 07:12:41;;;;;;;3.88;0.50;;;;;;;;;;5018593;28;20310;-69
2022/09/18 07:15:06;;;;;;;2.97;0.60;;;;;;;;;;5016798;28;20613;-69
2022/09/18 07:17:32;;;;;;;2.53;0.50;;;;;;;;;;5009950;28;20649;-68
2022/09/18 07:19:57;;;;;;;2.07;0.70;;;;;;;;;;5008219;28;20178;-69
2022/09/18 07:22:22;;;;;;;4.65;1.15;;;;;;;;;;5017468;28;20190;-69
2022/09/18 07:24:48;;;;;;;2.78;0.63;;;;;;;;;;5021799;28;20198;-69
2022/09/18 07:27:13;;;;;;;2.80;0.80;;;;;;;;;;5016540;28;20508;-70
2022/09/18 07:29:38;;;;;;;2.95;0.77;;;;;;;;;;5002460;28;20621;-69
2022/09/18 07:32:04;;;;;;;1.65;0.30;;;;;;;;;;5010229;28;20297;-69
2022/09/18 07:34:30;;;;;;;1.88;0.70;;;;;;;;;;5011485;28;20736;-69
2022/09/18 07:36:55;;;;;;;1.83;0.65;;;;;;;;;;5013010;28;20234;-70
2022/09/18 07:39:20;;;;;;;4.80;0.50;;;;;;;;;;4997290;28;20573;-69
2022/09/18 07:41:46;;;;;;;2.78;0.47;;;;;;;;;;5025194;28;20185;-69
2022/09/18 07:44:11;;;;;;;3.50;0.63;;;;;;;;;;5017770;28;20691;-69
2022/09/18 07:46:36;;;;;;;1.48;0.70;;;;;;;;;;5014088;28;20178;-69
2022/09/18 07:49:01;;;;;;;2.72;0.40;;;;;;;;;;5024072;28;20261;-69
2022/09/18 07:51:26;;;;;;;2.88;0.88;;;;;;;;;;5012372;28;20281;-70
2022/09/18 07:53:52;;;;;;;3.33;0.80;;;;;;;;;;5011992;28;20230;-69
2022/09/18 07:56:17;;;;;;;2.35;0.60;;;;;;;;;;5006873;28;20230;-69
2022/09/18 07:58:42;;;;;;;2.17;0.52;;;;;;;;;;5007832;28;20204;-68
2022/09/18 08:01:07;;;;;;;2.42;0.50;;;;;;;;;;5017523;28;20175;-69
2022/09/18 08:03:33;;;;;;;1.63;0.73;;;;;;;;;;5016859;28;20695;-68
2022/09/18 08:05:58;;;;;;;3.38;0.60;;;;;;;;;;5011704;28;20202;-69
2022/09/18 08:08:23;;;;;;;2.10;0.77;;;;;;;;;;5020744;28;20182;-69
2022/09/18 08:10:49;;;;;;;6.60;0.57;;;;;;;;;;5025396;28;20218;-69
2022/09/18 08:13:14;;;;;;;2.00;0.70;;;;;;;;;;5011442;28;20307;-69
2022/09/18 08:15:40;;;;;;;2.30;0.60;;;;;;;;;;5026430;28;20217;-69
2022/09/18 08:18:06;;;;;;;3.65;0.52;;;;;;;;;;5014572;28;20201;-69
2022/09/18 08:20:32;;;;;;;2.03;0.50;;;;;;;;;;5025495;28;20204;-69
2022/09/18 08:22:57;;;;;;;2.90;0.60;;;;;;;;;;4992528;28;20218;-69
2022/09/18 08:25:22;;;;;;;4.30;0.57;;;;;;;;;;4994307;28;20219;-69
2022/09/18 08:27:48;;;;;;;3.35;0.60;;;;;;;;;;5011333;28;20310;-69
2022/09/18 08:30:13;;;;;;;1.98;0.55;;;;;;;;;;5024590;28;20182;-70
2022/09/18 08:32:39;;;;;;;2.20;0.40;;;;;;;;;;5018506;28;20197;-69
2022/09/18 08:35:05;;;;;;;5.43;2.28;;;;;;;;;;5010670;28;20679;-68
2022/09/18 08:37:31;;;;;;;1.55;0.60;;;;;;;;;;5009317;28;20184;-69
2022/09/18 08:39:57;;;;;;;7.63;2.05;;;;;;;;;;5018870;28;20632;-69
2022/09/18 08:42:26;;;;;;;4.43;0.50;;;;;;;;;;5018255;28;20203;-69
2022/09/18 08:44:54;;;;;;;2.72;0.50;;;;;;;;;;5023030;28;20314;-68
2022/09/18 08:47:20;;;;;;;2.58;0.50;;;;;;;;;;5017815;28;20183;-69
2022/09/18 08:49:59;;;;;;;1.30;0.50;;;;;;;;;;5008004;28;20186;-68
2022/09/18 08:52:27;;;;;;;4.10;0.60;;;;;;;;;;5018197;28;20268;-69
2022/09/18 08:54:58;;;;;;;2.53;0.68;;;;;;;;;;5024909;28;20304;-69
2022/09/18 08:57:26;;;;;;;3.25;0.77;;;;;;;;;;5016272;28;20188;-68
2022/09/18 09:00:00;;;;;;;3.15;0.80;;;;;;;;;;5013839;28;20183;-68
2022/09/18 09:02:34;;;;;;;2.42;0.57;;;;;;;;;;5010515;28;20197;-69
2022/09/18 09:05:07;;;;;;;5.68;0.68;;;;;;;;;;5067087;28;20552;-70
2022/09/18 09:07:36;;;;;;;2.88;1.33;;;;;;;;;;5049739;28;20603;-70
2022/09/18 09:10:10;;;;;;;5.40;0.80;;;;;;;;;;5047382;28;20181;-69
2022/09/18 09:12:37;;;;;;;3.22;0.77;;;;;;;;;;5045198;28;20192;-70
2022/09/18 09:17:29;;;;;;;4.63;1.27;;;;;;;;;;5011133;28;20311;-74
2022/09/18 09:20:18;;;;;;;1.03;0.63;;;;;;;;;;5006697;28;20270;-74
2022/09/18 09:22:50;;;;;;;2.70;0.68;;;;;;;;;;4991235;28;20436;-73
2022/09/18 09:25:20;;;;;;;4.05;1.13;;;;;;;;;;5004933;28;20203;-73
2022/09/18 09:28:01;;;;;;;2.40;0.50;;;;;;;;;;4987662;28;20174;-73
2022/09/18 09:30:28;;;;;;;4.60;1.00;;;;;;;;;;4996828;28;20247;-73
2022/09/18 09:33:13;;;;;;;1.98;0.60;;;;;;;;;;4987354;28;20188;-73
2022/09/18 09:35:53;;;;;;;3.25;0.73;;;;;;;;;;4995437;28;20191;-73
2022/09/18 09:38:24;;;;;;;2.85;0.85;;;;;;;;;;4990022;28;20234;-73
2022/09/18 09:40:51;;;;;;;3.28;0.80;;;;;;;;;;4993115;28;20178;-74
2022/09/18 09:43:28;;;;;;;3.65;0.80;;;;;;;;;;4992771;28;20573;-73
2022/09/18 09:45:54;;;;;;;2.97;0.70;;;;;;;;;;4993275;28;20191;-74
2022/09/18 09:48:38;;;;;;;4.13;0.77;;;;;;;;;;4986983;28;20208;-74
2022/09/18 09:51:21;;;;;;;2.90;0.77;;;;;;;;;;4979767;28;20184;-74
2022/09/18 09:53:47;;;;;;;2.60;0.88;;;;;;;;;;4978742;28;20188;-73
2022/09/18 09:56:18;;;;;;;3.67;0.90;;;;;;;;;;4984526;28;20200;-73
2022/09/18 09:59:13;;;;;;;3.55;0.70;;;;;;;;;;4985041;28;20557;-73
2022/09/18 10:01:38;;;;;;;1.75;0.73;;;;;;;;;;4990126;28;20180;-72
2022/09/18 10:04:22;;;;;;;3.67;1.20;;;;;;;;;;4983891;28;20219;-70
2022/09/18 10:06:50;;;;;;;2.28;0.70;;;;;;;;;;4993182;28;20187;-71
2022/09/18 10:09:19;;;;;;;3.22;1.02;;;;;;;;;;4976568;28;20180;-74
2022/09/18 10:11:50;;;;;;;4.10;0.93;;;;;;;;;;4989798;28;20226;-73
2022/09/18 10:14:21;;;;;;;4.50;0.60;;;;;;;;;;4983136;28;20184;-73
2022/09/18 10:16:48;;;;;;;3.05;0.63;;;;;;;;;;4966945;28;20219;-74
2022/09/18 10:19:15;;;;;;;2.83;0.60;;;;;;;;;;4959383;28;20528;-73
2022/09/18 10:21:42;;;;;;;4.10;0.60;;;;;;;;;;4981748;28;20255;-73
2022/09/18 10:24:10;;;;;;;1.92;0.63;;;;;;;;;;4979224;28;20688;-73
2022/09/18 10:26:40;;;;;;;3.92;0.90;;;;;;;;;;4977795;28;20235;-74
2022/09/18 10:29:05;;;;;;;2.17;0.70;;;;;;;;;;4973861;28;20270;-74
2022/09/18 10:31:50;;;;;;;3.30;0.50;;;;;;;;;;4968834;28;20307;-73
2022/09/18 10:34:32;;;;;;;2.78;0.60;;;;;;;;;;4976488;28;20196;-73
2022/09/18 10:36:58;;;;;;;2.45;0.50;;;;;;;;;;4950980;28;20674;-73
2022/09/18 10:39:31;;;;;;;4.03;0.60;;;;;;;;;;4957054;28;20234;-74
2022/09/18 10:41:56;;;;;;;1.90;0.90;;;;;;;;;;4974657;28;20665;-73
2022/09/18 10:44:42;;;;;;;1.92;0.47;;;;;;;;;;4976491;28;20207;-71
2022/09/18 10:47:18;;;;;;;3.40;0.60;;;;;;;;;;4976068;28;20674;-71
2022/09/18 10:49:52;;;;;;;3.03;0.55;;;;;;;;;;4976269;28;20558;-72
2022/09/18 10:52:35;;;;;;;4.50;0.63;;;;;;;;;;4972553;28;20692;-75
2022/09/18 10:55:03;;;;;;;2.40;0.82;;;;;;;;;;4974371;28;20270;-72
2022/09/18 10:57:32;;;;;;;6.32;0.60;;;;;;;;;;4964201;28;20255;-74
2022/09/18 10:59:58;;;;;;;3.03;0.40;;;;;;;;;;4965220;28;20185;-74
2022/09/18 11:02:25;;;;;;;1.20;0.40;;;;;;;;;;4974408;28;20664;-71
2022/09/18 11:04:51;;;;;;;4.78;0.80;;;;;;;;;;4983330;28;20204;-74
2022/09/18 11:07:16;;;;;;;3.45;0.55;;;;;;;;;;4968702;28;20589;-73
2022/09/18 11:09:42;;;;;;;2.00;1.02;;;;;;;;;;4952099;28;20176;-72
2022/09/18 11:12:14;;;;;;;1.02;0.57;;;;;;;;;;4975772;28;20227;-72
2022/09/18 11:14:41;;;;;;;2.03;0.43;;;;;;;;;;4973322;28;20212;-72
2022/09/18 11:17:15;;;;;;;4.82;1.30;;;;;;;;;;4970931;28;20261;-72
2022/09/18 11:19:41;;;;;;;3.53;1.17;;;;;;;;;;4975678;28;20188;-72
2022/09/18 11:22:26;;;;;;;1.55;0.30;;;;;;;;;;4962664;28;20180;-72
2022/09/18 11:25:04;;;;;;;0.82;0.40;;;;;;;;;;4962562;28;20628;-73
2022/09/18 11:27:42;;;;;;;2.20;0.47;;;;;;;;;;4969236;28;20176;-72
2022/09/18 11:30:14;;;;;;;2.55;0.47;;;;;;;;;;4969682;28;20204;-73
2022/09/18 11:32:40;;;;;;;1.13;0.20;;;;;;;;;;4974339;28;20187;-72
2022/09/18 11:35:12;;;;;;;0.98;0.40;;;;;;;;;;4981145;28;20184;-73
2022/09/18 11:37:42;;;;;;;1.90;0.65;;;;;;;;;;4976470;28;20653;-73
2022/09/18 11:40:13;;;;;;;1.52;0.20;;;;;;;;;;4973185;28;20223;-74
2022/09/18 11:42:43;;;;;;;1.02;0.63;;;;;;;;;;4976920;28;20739;-73
2022/09/18 11:45:18;;;;;;;4.05;0.70;;;;;;;;;;4971973;28;20271;-73
2022/09/18 11:47:50;;;;;;;4.32;0.50;;;;;;;;;;4967744;28;20171;-73
2022/09/18 11:50:18;;;;;;;2.75;0.50;;;;;;;;;;4966443;28;20321;-73
2022/09/18 11:52:44;;;;;;;2.53;0.45;;;;;;;;;;4974441;28;20236;-74
2022/09/18 11:55:19;;;;;;;1.25;0.50;;;;;;;;;;4971643;28;20185;-73
2022/09/18 11:57:46;;;;;;;6.75;2.42;;;;;;;;;;4969467;28;20220;-73
2022/09/18 12:00:14;;;;;;;2.30;0.88;;;;;;;;;;4969326;28;20688;-73
2022/09/18 12:02:58;;;;;;;3.15;0.40;;;;;;;;;;4972567;28;20184;-73
2022/09/18 12:05:51;;;;;;;2.92;1.15;;;;;;;;;;4960964;28;20206;-73
2022/09/18 12:08:16;;;;;;;8.88;1.23;;;;;;;;;;4976423;28;20180;-73
2022/09/18 12:11:00;;;;;;;2.50;0.50;;;;;;;;;;4969607;28;20320;-74
2022/09/18 12:13:35;;;;;;;2.58;0.45;;;;;;;;;;4967909;28;20214;-74
2022/09/18 12:16:06;;;;;;;0.90;0.40;;;;;;;;;;4963551;28;20211;-73
2022/09/18 12:18:45;;;;;;;0.88;0.40;;;;;;;;;;4973155;28;20187;-73
2022/09/18 12:21:14;;;;;;;1.75;0.40;;;;;;;;;;4977401;28;20202;-73
2022/09/18 12:23:39;;;;;;;0.80;0.30;;;;;;;;;;4971743;28;20195;-72
2022/09/18 12:26:17;;;;;;;2.92;0.60;;;;;;;;;;4971806;28;20727;-72
2022/09/18 12:28:42;;;;;;;3.20;0.90;;;;;;;;;;4969096;28;20212;-73
2022/09/18 12:31:13;;;;;;;2.60;0.77;;;;;;;;;;4974492;28;20267;-73
2022/09/18 12:34:09;;;;;;;5.65;1.80;;;;;;;;;;4972236;28;20513;-73
2022/09/18 12:36:43;;;;;;;7.03;3.13;;;;;;;;;;4921237;28;20637;-73
2022/09/18 12:39:28;;;;;;;2.10;0.90;;;;;;;;;;4969495;28;20646;-73
2022/09/18 12:42:02;;;;;;;3.05;0.70;;;;;;;;;;4966727;28;20184;-72
2022/09/18 12:44:46;;;;;;;4.30;0.60;;;;;;;;;;4977330;28;20196;-73
2022/09/18 12:47:11;;;;;;;2.17;0.50;;;;;;;;;;4975081;28;20204;-73
2022/09/18 12:49:36;;;;;;;1.60;0.90;;;;;;;;;;4969774;28;20350;-72
2022/09/18 12:52:28;;;;;;;4.45;0.90;;;;;;;;;;4970777;28;20426;-73
2022/09/18 12:54:59;;;;;;;4.05;0.43;;;;;;;;;;4955743;28;20425;-72
2022/09/18 12:57:36;;;;;;;4.90;1.15;;;;;;;;;;4977210;28;20192;-73
2022/09/18 13:00:10;;;;;;;4.72;0.82;;;;;;;;;;4973121;28;20187;-73
2022/09/18 13:02:53;;;;;;;1.63;0.80;;;;;;;;;;4974098;28;20188;-73
2022/09/18 13:05:24;;;;;;;3.65;0.65;;;;;;;;;;4968076;28;20294;-73
2022/09/18 13:07:53;;;;;;;1.10;0.52;;;;;;;;;;4966446;28;20558;-74
2022/09/18 13:10:44;;;;;;;1.88;0.80;;;;;;;;;;4974697;28;20199;-74
2022/09/18 13:13:29;;;;;;;1.27;0.75;;;;;;;;;;4949081;28;20195;-73
2022/09/18 13:15:56;;;;;;;1.77;0.40;;;;;;;;;;4974332;28;20242;-74
2022/09/18 13:18:34;;;;;;;1.20;0.52;;;;;;;;;;4968425;28;20176;-73
2022/09/18 13:21:02;;;;;;;2.60;0.70;;;;;;;;;;4969653;28;20207;-74
2022/09/18 13:23:31;;;;;;;1.10;0.50;;;;;;;;;;4975482;28;20196;-73
2022/09/18 13:25:58;;;;;;;2.75;0.85;;;;;;;;;;4972063;28;20208;-73
2022/09/18 13:28:23;;;;;;;1.10;0.65;;;;;;;;;;4978808;28;20210;-73
2022/09/18 13:31:09;;;;;;;1.67;0.90;;;;;;;;;;4972929;28;20650;-73
2022/09/18 13:33:34;;;;;;;1.33;0.90;;;;;;;;;;4971151;28;20201;-74
2022/09/18 13:36:00;;;;;;;2.05;0.40;;;;;;;;;;4970233;28;20200;-73
2022/09/18 13:38:26;;;;;;;1.00;0.52;;;;;;;;;;4979600;28;20183;-73
2022/09/18 13:41:00;;;;;;;1.40;0.95;;;;;;;;;;4967403;28;20180;-74
2022/09/18 13:43:28;;;;;;;0.95;0.60;;;;;;;;;;4975058;28;20417;-74
2022/09/18 13:45:55;;;;;;;1.65;0.68;;;;;;;;;;4976794;28;20196;-74
2022/09/18 13:48:26;;;;;;;2.65;1.00;;;;;;;;;;4970503;28;20176;-73
2022/09/18 13:50:51;;;;;;;2.22;0.70;;;;;;;;;;4950608;28;20267;-73
2022/09/18 13:53:42;;;;;;;0.73;0.50;;;;;;;;;;4979784;28;20327;-73
2022/09/18 13:56:15;;;;;;;1.40;0.47;;;;;;;;;;4967883;28;20235;-73
2022/09/18 13:58:47;;;;;;;0.90;0.60;;;;;;;;;;4968857;28;20677;-73
2022/09/18 14:01:32;;;;;;;2.08;0.45;;;;;;;;;;4958278;28;20188;-74
2022/09/18 14:03:57;;;;;;;1.80;0.75;;;;;;;;;;4964286;28;20208;-73
2022/09/18 14:06:35;;;;;;;3.38;0.90;;;;;;;;;;4978084;28;20199;-73
2022/09/18 14:09:01;;;;;;;1.48;0.68;;;;;;;;;;4976362;28;20204;-73
2022/09/18 14:11:26;;;;;;;0.77;0.52;;;;;;;;;;4978430;28;20207;-73
2022/09/18 14:13:54;;;;;;;0.50;0.30;;;;;;;;;;4975728;28;20184;-73
2022/09/18 14:16:19;;;;;;;5.53;0.90;;;;;;;;;;4984164;28;20250;-73
2022/09/18 14:18:47;;;;;;;2.50;1.38;;;;;;;;;;4973259;28;20364;-73
2022/09/18 14:21:31;;;;;;;1.35;0.68;;;;;;;;;;4979810;28;20215;-73
2022/09/18 14:24:15;;;;;;;4.40;0.68;;;;;;;;;;4971259;28;20253;-73
2022/09/18 14:26:43;;;;;;;2.65;1.05;;;;;;;;;;4975858;28;20560;-73
2022/09/18 14:29:14;;;;;;;1.65;0.80;;;;;;;;;;4975808;28;20267;-73
2022/09/18 14:31:56;;;;;;;3.38;1.10;;;;;;;;;;4983544;28;20207;-72
2022/09/18 14:34:21;;;;;;;4.80;1.00;;;;;;;;;;4969018;28;20188;-73
2022/09/18 14:36:47;;;;;;;2.45;0.98;;;;;;;;;;4971200;28;20720;-73
2022/09/18 14:39:22;;;;;;;4.00;0.88;;;;;;;;;;4955578;28;20680;-72
2022/09/18 14:41:47;;;;;;;3.50;0.85;;;;;;;;;;4971577;28;20725;-74
2022/09/18 14:44:15;;;;;;;2.83;0.82;;;;;;;;;;4960022;28;20212;-74
2022/09/18 14:46:50;;;;;;;6.57;1.60;;;;;;;;;;4985703;28;20201;-75
2022/09/18 14:49:24;;;;;;;2.55;0.80;;;;;;;;;;4976522;28;20188;-75
2022/09/18 14:51:49;;;;;;;3.63;1.30;;;;;;;;;;4968227;28;20181;-74
2022/09/18 14:54:17;;;;;;;4.88;1.45;;;;;;;;;;4982393;28;20192;-74
2022/09/18 14:56:43;;;;;;;3.83;1.50;;;;;;;;;;4967376;28;20207;-75